Terminal Aerodrome Forecast
Issued by NWS Boston, MA

Home | Current Version | Previous Version | Text Only | Print | Product List | Glossary On
Versions: 1 2 3 4 5 6 7 8 9 10 11 12 13 14 15 16 17 18 19 20 21 22 23 24 25 26
000
FTUS41 KBOX 292330
TAFORH
TAF
KORH 292330Z 3000/3024 18005KT P6SM BKN100
     FM300500 17006KT 3SM -SN OVC025
     FM300600 17006KT 2SM -SN OVC010
     FM301500 26005KT 1SM -SN OVC008
     FM302100 31009KT 3SM -SN OVC015=

USA.gov is the U.S. government's official web portal to all federal, state and local government web resources and services.